createdAt,value
2017-07-28T00:00:45.740Z,15.76
2017-07-28T00:01:54.622Z,15.67
2017-07-28T00:03:04.478Z,15.69
2017-07-28T00:04:14.075Z,15.65
2017-07-28T00:05:23.303Z,15.8
2017-07-28T00:06:32.845Z,15.62
2017-07-28T00:07:42.372Z,15.68
2017-07-28T00:08:51.255Z,15.65
2017-07-28T00:10:01.407Z,15.57
2017-07-28T00:11:11.257Z,15.54
2017-07-28T00:12:20.472Z,15.65
2017-07-28T00:13:30.566Z,15.5
2017-07-28T00:14:40.098Z,15.54
2017-07-28T00:15:49.182Z,15.47
2017-07-28T00:16:58.384Z,15.47
2017-07-28T00:18:08.235Z,15.51
2017-07-28T00:19:18.088Z,15.5
2017-07-28T00:20:27.292Z,15.51
2017-07-28T00:21:37.398Z,15.43
2017-07-28T00:22:46.605Z,15.28
2017-07-28T00:23:56.126Z,15.32
2017-07-28T00:25:05.333Z,15.32
2017-07-28T00:26:14.862Z,15.27
2017-07-28T00:27:24.923Z,15.29
2017-07-28T00:28:34.136Z,15.29
2017-07-28T00:29:43.664Z,15.31
2017-07-28T00:30:52.868Z,15.28
2017-07-28T00:32:02.076Z,15.21
2017-07-28T00:33:11.291Z,15.2
2017-07-28T00:34:20.184Z,15.14
2017-07-28T00:35:30.037Z,15.09
2017-07-28T00:36:40.222Z,15.11
2017-07-28T00:37:49.431Z,15.14
2017-07-28T00:38:59.111Z,15.11
2017-07-28T00:40:08.637Z,15.14
2017-07-28T00:41:18.489Z,15.14
2017-07-28T00:42:28.338Z,15.16
2017-07-28T00:43:38.189Z,15.1
2017-07-28T00:44:48.063Z,15.11
2017-07-28T00:45:56.945Z,15.17
2017-07-28T00:47:06.484Z,15.1
2017-07-28T00:48:15.695Z,15.1
2017-07-28T00:49:25.226Z,15.1
2017-07-28T00:50:35.057Z,15.14
2017-07-28T00:51:44.262Z,15.11
2017-07-28T00:52:53.144Z,15.13
2017-07-28T00:54:02.028Z,15.14
2017-07-28T00:55:11.233Z,15.02
2017-07-28T00:56:20.736Z,15.03
2017-07-28T00:57:29.642Z,15.07
2017-07-28T00:58:39.181Z,14.99
2017-07-28T00:59:48.726Z,15.01
2017-07-28T01:00:58.262Z,14.98
2017-07-28T01:02:08.774Z,14.91
2017-07-28T01:03:17.982Z,14.86
2017-07-28T01:04:27.196Z,14.83
2017-07-28T01:05:36.728Z,14.8
2017-07-28T01:06:46.253Z,14.73
2017-07-28T01:07:55.506Z,14.69
2017-07-28T01:09:04.717Z,14.77
2017-07-28T01:10:14.564Z,14.64
2017-07-28T01:11:24.411Z,14.69
2017-07-28T01:12:33.934Z,14.64
2017-07-28T01:13:42.816Z,14.64
2017-07-28T01:14:52.031Z,14.69
2017-07-28T01:16:01.888Z,14.72
2017-07-28T01:17:11.423Z,14.65
2017-07-28T01:18:20.624Z,14.68
2017-07-28T01:19:29.683Z,14.65
2017-07-28T01:20:39.212Z,14.64
2017-07-28T01:21:49.069Z,14.6
2017-07-28T01:22:58.600Z,14.51
2017-07-28T01:24:09.100Z,14.58
2017-07-28T01:25:19.150Z,14.61
2017-07-28T01:26:28.351Z,14.55
2017-07-28T01:27:37.885Z,14.55
2017-07-28T01:28:48.066Z,14.5
2017-07-28T01:29:57.274Z,14.57
2017-07-28T01:31:06.308Z,14.51
2017-07-28T01:32:15.511Z,14.47
2017-07-28T01:33:25.361Z,14.47
2017-07-28T01:34:34.241Z,14.51
2017-07-28T01:35:43.447Z,14.5
2017-07-28T01:36:53.137Z,14.5
2017-07-28T01:38:02.344Z,14.37
2017-07-28T01:39:11.553Z,14.36
2017-07-28T01:40:20.430Z,14.32
2017-07-28T01:41:29.630Z,14.37
2017-07-28T01:42:38.512Z,14.28
2017-07-28T01:43:48.683Z,14.17
2017-07-28T01:44:57.888Z,14.21
2017-07-28T01:46:07.094Z,14.25
2017-07-28T01:47:15.976Z,14.18
2017-07-28T01:48:25.430Z,14.2
2017-07-28T01:49:34.960Z,14.25
2017-07-28T01:50:44.165Z,14.24
2017-07-28T01:51:53.043Z,14.24
2017-07-28T01:53:02.245Z,14.18
2017-07-28T01:54:11.274Z,14.18
2017-07-28T01:55:20.160Z,14.15
2017-07-28T01:56:30.009Z,14.29
2017-07-28T01:57:39.217Z,14.21
2017-07-28T01:58:49.426Z,14.25
2017-07-28T01:59:59.103Z,14.21
2017-07-28T02:01:08.976Z,14.22
2017-07-28T02:02:18.505Z,14.12
2017-07-28T02:03:27.708Z,14.12
2017-07-28T02:04:36.908Z,14.17
2017-07-28T02:05:46.489Z,14.14
2017-07-28T02:06:55.691Z,14.14
2017-07-28T02:08:05.226Z,14.1
2017-07-28T02:09:15.086Z,14.14
2017-07-28T02:10:24.936Z,14.12
2017-07-28T02:11:34.838Z,14.1
2017-07-28T02:12:44.041Z,14.12
2017-07-28T02:13:54.220Z,14.1
2017-07-28T02:15:03.103Z,14.12
2017-07-28T02:16:11.987Z,14.14
2017-07-28T02:17:21.519Z,14.15
2017-07-28T02:18:31.716Z,14.18
2017-07-28T02:19:40.931Z,14.14
2017-07-28T02:20:50.464Z,14.15
2017-07-28T02:22:00.000Z,14.17
2017-07-28T02:23:09.400Z,14.15
2017-07-28T02:24:18.603Z,14.14
2017-07-28T02:25:28.135Z,14.04
2017-07-28T02:26:37.665Z,14.03
2017-07-28T02:27:46.877Z,14.06
2017-07-28T02:28:56.136Z,14.1
2017-07-28T02:30:05.663Z,14.06
2017-07-28T02:31:15.522Z,14.1
2017-07-28T02:32:25.056Z,13.92
2017-07-28T02:33:34.265Z,14.09
2017-07-28T02:34:43.347Z,14.03
2017-07-28T02:35:52.812Z,14.02
2017-07-28T02:37:02.015Z,14.04
2017-07-28T02:38:11.218Z,14
2017-07-28T02:39:20.426Z,14.06
2017-07-28T02:40:29.728Z,14.06
2017-07-28T02:41:39.273Z,14
2017-07-28T02:42:49.134Z,14.06
2017-07-28T02:43:58.660Z,14.03
2017-07-28T02:45:08.508Z,13.96
2017-07-28T02:46:17.866Z,13.97
2017-07-28T02:47:27.402Z,14
2017-07-28T02:48:36.285Z,14.03
2017-07-28T02:49:45.489Z,13.97
2017-07-28T02:50:55.027Z,14.04
2017-07-28T02:52:05.199Z,13.92
2017-07-28T02:53:14.724Z,14
2017-07-28T02:54:23.927Z,13.99
2017-07-28T02:55:33.457Z,13.99
2017-07-28T02:56:43.308Z,14.02
2017-07-28T02:57:52.671Z,13.96
2017-07-28T02:59:02.197Z,13.87
2017-07-28T03:00:11.743Z,13.91
2017-07-28T03:01:21.272Z,13.89
2017-07-28T03:02:30.804Z,13.85
2017-07-28T03:03:40.056Z,13.88
2017-07-28T03:04:49.590Z,13.92
2017-07-28T03:05:58.799Z,13.89
2017-07-28T03:07:08.325Z,13.95
2017-07-28T03:08:17.198Z,13.92
2017-07-28T03:09:26.722Z,13.91
2017-07-28T03:10:36.580Z,13.92
2017-07-28T03:11:45.811Z,13.92
2017-07-28T03:12:55.015Z,13.88
2017-07-28T03:14:04.549Z,13.87
2017-07-28T03:15:13.753Z,13.88
2017-07-28T03:16:23.279Z,13.82
2017-07-28T03:17:32.485Z,13.81
2017-07-28T03:18:41.699Z,13.78
2017-07-28T03:19:51.556Z,13.81
2017-07-28T03:21:01.561Z,13.81
2017-07-28T03:22:11.409Z,13.78
2017-07-28T03:23:20.934Z,13.78
2017-07-28T03:24:30.140Z,13.78
2017-07-28T03:25:39.020Z,13.71
2017-07-28T03:26:49.446Z,13.73
2017-07-28T03:27:58.990Z,13.82
2017-07-28T03:29:08.521Z,13.78
2017-07-28T03:30:18.053Z,13.78
2017-07-28T03:31:27.584Z,13.75
2017-07-28T03:32:36.617Z,13.73
2017-07-28T03:33:46.791Z,13.71
2017-07-28T03:34:56.647Z,13.71
2017-07-28T03:36:06.191Z,13.71
2017-07-28T03:37:15.723Z,13.67
2017-07-28T03:38:25.874Z,13.75
2017-07-28T03:39:35.724Z,13.73
2017-07-28T03:40:45.571Z,13.7
2017-07-28T03:41:55.103Z,13.71
2017-07-28T03:43:03.990Z,13.66
2017-07-28T03:44:13.314Z,13.66
2017-07-28T03:45:23.161Z,13.63
2017-07-28T03:46:33.021Z,13.62
2017-07-28T03:47:42.872Z,13.69
2017-07-28T03:48:52.409Z,13.64
2017-07-28T03:50:01.494Z,13.67
2017-07-28T03:51:11.035Z,13.63
2017-07-28T03:52:20.563Z,13.62
2017-07-28T03:53:29.446Z,13.64
2017-07-28T03:54:38.646Z,13.64
2017-07-28T03:55:48.476Z,13.6
2017-07-28T03:56:57.688Z,13.57
2017-07-28T03:58:06.895Z,13.59
2017-07-28T03:59:16.095Z,13.59
2017-07-28T04:00:24.980Z,13.51
2017-07-28T04:01:34.285Z,13.55
2017-07-28T04:02:43.816Z,13.59
2017-07-28T04:03:53.677Z,13.57
2017-07-28T04:05:03.854Z,13.49
2017-07-28T04:06:13.705Z,13.6
2017-07-28T04:07:22.913Z,13.59
2017-07-28T04:08:31.807Z,13.57
2017-07-28T04:09:41.332Z,13.57
2017-07-28T04:10:50.861Z,13.63
2017-07-28T04:12:00.062Z,13.64
2017-07-28T04:13:10.114Z,13.63
2017-07-28T04:14:19.322Z,13.67
2017-07-28T04:15:28.533Z,13.63
2017-07-28T04:16:37.740Z,13.64
2017-07-28T04:17:46.942Z,13.63
2017-07-28T04:18:56.145Z,13.7
2017-07-28T04:20:05.027Z,13.66
2017-07-28T04:21:14.886Z,13.71
2017-07-28T04:22:24.091Z,13.73
2017-07-28T04:23:32.971Z,13.78
2017-07-28T04:24:42.476Z,13.71
2017-07-28T04:25:51.688Z,13.75
2017-07-28T04:27:00.567Z,13.81
2017-07-28T04:28:09.773Z,13.71
2017-07-28T04:29:19.625Z,13.79
2017-07-28T04:30:29.477Z,13.78
2017-07-28T04:31:38.685Z,13.75
2017-07-28T04:32:47.902Z,13.87
2017-07-28T04:33:56.786Z,13.82
2017-07-28T04:35:06.634Z,13.85
2017-07-28T04:36:15.994Z,13.85
2017-07-28T04:37:25.207Z,13.92
2017-07-28T04:38:34.417Z,13.87
2017-07-28T04:39:43.621Z,13.99
2017-07-28T04:40:53.151Z,13.99
2017-07-28T04:42:02.334Z,13.95
2017-07-28T04:43:12.184Z,13.96
2017-07-28T04:44:21.718Z,13.99
2017-07-28T04:45:31.256Z,14.06
2017-07-28T04:46:40.784Z,14.03
2017-07-28T04:47:50.515Z,14.06
2017-07-28T04:49:00.056Z,14.03
2017-07-28T04:50:09.268Z,13.97
2017-07-28T04:51:18.804Z,14
2017-07-28T04:52:28.344Z,13.99
2017-07-28T04:53:38.023Z,13.96
2017-07-28T04:54:47.873Z,14
2017-07-28T04:55:57.129Z,14.03
2017-07-28T04:57:06.977Z,14.03
2017-07-28T04:58:16.531Z,14.03
2017-07-28T04:59:26.062Z,14.03
2017-07-28T05:00:35.914Z,14.09
2017-07-28T05:01:45.763Z,14.1
2017-07-28T05:02:54.654Z,14.17
2017-07-28T05:04:04.192Z,14.15
2017-07-28T05:05:14.194Z,14.21
2017-07-28T05:06:23.409Z,14.24
2017-07-28T05:07:32.617Z,14.25
2017-07-28T05:08:42.150Z,14.21
2017-07-28T05:09:51.354Z,14.21
2017-07-28T05:11:01.034Z,14.21
2017-07-28T05:12:10.564Z,14.18
2017-07-28T05:13:20.088Z,14.22
2017-07-28T05:14:29.616Z,14.25
2017-07-28T05:15:38.820Z,14.28
2017-07-28T05:16:48.448Z,14.28
2017-07-28T05:17:57.976Z,14.25
2017-07-28T05:19:07.831Z,14.35
2017-07-28T05:20:17.683Z,14.32
2017-07-28T05:21:26.893Z,14.37
2017-07-28T05:22:36.733Z,14.46
2017-07-28T05:23:45.628Z,14.54
2017-07-28T05:24:55.536Z,14.47
2017-07-28T05:26:05.070Z,14.54
2017-07-28T05:27:14.923Z,14.55
2017-07-28T05:28:24.280Z,14.61
2017-07-28T05:29:33.806Z,14.54
2017-07-28T05:30:43.349Z,14.65
2017-07-28T05:31:53.203Z,14.62
2017-07-28T05:33:02.408Z,14.68
2017-07-28T05:34:12.360Z,14.68
2017-07-28T05:35:22.539Z,14.64
2017-07-28T05:36:32.392Z,14.68
2017-07-28T05:37:41.595Z,14.75
2017-07-28T05:38:51.454Z,14.8
2017-07-28T05:40:01.136Z,14.78
2017-07-28T05:41:10.669Z,14.81
2017-07-28T05:42:20.522Z,14.81
2017-07-28T05:43:30.052Z,14.84
2017-07-28T05:44:39.261Z,14.92
2017-07-28T05:45:48.987Z,14.95
2017-07-28T05:46:57.868Z,14.94
2017-07-28T05:48:07.718Z,14.98
2017-07-28T05:49:16.921Z,15.13
2017-07-28T05:50:25.806Z,15.25
2017-07-28T05:51:35.856Z,15.29
2017-07-28T05:52:45.717Z,15.43
2017-07-28T05:53:54.977Z,15.41
2017-07-28T05:55:04.830Z,15.49
2017-07-28T05:56:14.354Z,15.5
2017-07-28T05:57:24.036Z,15.47
2017-07-28T05:58:33.243Z,15.49
2017-07-28T05:59:42.455Z,15.51
2017-07-28T06:00:51.984Z,15.54
2017-07-28T06:02:01.840Z,15.47
2017-07-28T06:03:11.583Z,15.5
2017-07-28T06:04:20.788Z,15.53
2017-07-28T06:05:30.002Z,15.53
2017-07-28T06:06:39.856Z,15.54
2017-07-28T06:07:49.385Z,15.59
2017-07-28T06:08:59.062Z,15.64
2017-07-28T06:10:08.591Z,15.56
2017-07-28T06:11:18.437Z,15.57
2017-07-28T06:12:27.970Z,15.67
2017-07-28T06:13:36.854Z,15.74
2017-07-28T06:14:45.939Z,15.69
2017-07-28T06:15:54.819Z,15.82
2017-07-28T06:17:03.709Z,15.78
2017-07-28T06:18:13.239Z,15.78
2017-07-28T06:19:22.450Z,15.94
2017-07-28T06:20:32.025Z,15.92
2017-07-28T06:21:41.883Z,15.94
2017-07-28T06:22:51.739Z,15.93
2017-07-28T06:24:01.595Z,15.96
2017-07-28T06:25:11.128Z,16
2017-07-28T06:26:20.492Z,15.96
2017-07-28T06:27:30.021Z,16.01
2017-07-28T06:28:38.907Z,16.08
2017-07-28T06:29:48.441Z,16.17
2017-07-28T06:30:57.656Z,16.17
2017-07-28T06:32:07.286Z,16.09
2017-07-28T06:33:16.817Z,16.23
2017-07-28T06:34:26.344Z,16.31
2017-07-28T06:35:35.882Z,16.28
2017-07-28T06:36:44.769Z,16.31
2017-07-28T06:37:54.028Z,16.38
2017-07-28T06:39:03.560Z,16.42
2017-07-28T06:40:12.450Z,16.48
2017-07-28T06:41:21.978Z,16.46
2017-07-28T06:42:31.506Z,16.53
2017-07-28T06:43:40.717Z,16.57
2017-07-28T06:44:49.931Z,16.58
2017-07-28T06:45:59.475Z,16.57
2017-07-28T06:47:09.004Z,16.63
2017-07-28T06:48:18.544Z,16.73
2017-07-28T06:49:28.231Z,16.73
2017-07-28T06:50:38.091Z,16.75
2017-07-28T06:51:47.622Z,16.81
2017-07-28T06:52:56.838Z,16.89
2017-07-28T06:54:06.047Z,16.83
2017-07-28T06:55:15.510Z,16.94
2017-07-28T06:56:25.042Z,16.97
2017-07-28T06:57:34.578Z,16.98
2017-07-28T06:58:44.107Z,17.07
2017-07-28T06:59:54.292Z,17.14
2017-07-28T07:01:04.025Z,17.08
2017-07-28T07:02:13.880Z,17.08
2017-07-28T07:03:23.412Z,17.19
2017-07-28T07:04:32.943Z,17.31
2017-07-28T07:05:42.509Z,17.28
2017-07-28T07:06:51.774Z,17.31
2017-07-28T07:08:01.380Z,17.33
2017-07-28T07:09:11.272Z,17.34
2017-07-28T07:10:20.515Z,17.41
2017-07-28T07:11:29.431Z,17.48
2017-07-28T07:12:39.219Z,17.62
2017-07-28T07:13:48.459Z,17.56
2017-07-28T07:14:57.696Z,17.54
2017-07-28T07:16:07.259Z,17.68
2017-07-28T07:17:17.202Z,17.62
2017-07-28T07:18:27.162Z,17.68
2017-07-28T07:19:37.038Z,17.72
2017-07-28T07:20:46.580Z,17.74
2017-07-28T07:21:56.797Z,17.63
2017-07-28T07:23:06.801Z,17.71
2017-07-28T07:24:16.446Z,17.74
2017-07-28T07:25:26.398Z,17.62
2017-07-28T07:26:35.658Z,17.63
2017-07-28T07:27:45.543Z,17.74
2017-07-28T07:28:54.825Z,17.62
2017-07-28T07:30:04.717Z,17.66
2017-07-28T07:31:13.969Z,17.68
2017-07-28T07:32:23.199Z,17.68
2017-07-28T07:33:32.783Z,17.66
2017-07-28T07:34:42.317Z,17.54
2017-07-28T07:35:52.034Z,17.54
2017-07-28T07:37:01.634Z,17.55
2017-07-28T07:38:11.570Z,17.68
2017-07-28T07:39:21.632Z,17.72
2017-07-28T07:40:31.664Z,17.66
2017-07-28T07:41:41.948Z,17.68
2017-07-28T07:42:51.314Z,17.79
2017-07-28T07:44:00.737Z,17.78
2017-07-28T07:45:10.316Z,17.78
2017-07-28T07:46:19.996Z,17.81
2017-07-28T07:47:29.304Z,17.72
2017-07-28T07:48:38.522Z,17.74
2017-07-28T07:49:47.440Z,17.72
2017-07-28T07:50:57.037Z,17.78
2017-07-28T07:52:06.587Z,17.74
2017-07-28T07:53:16.405Z,17.86
2017-07-28T07:54:25.356Z,17.89
2017-07-28T07:55:34.619Z,17.95
2017-07-28T07:56:43.831Z,18.03
2017-07-28T07:57:53.365Z,18.02
2017-07-28T07:59:02.877Z,18.14
2017-07-28T08:00:12.409Z,18.17
2017-07-28T08:01:21.303Z,18.18
2017-07-28T08:02:30.566Z,18.29
2017-07-28T08:03:40.495Z,18.15
2017-07-28T08:04:50.193Z,18.29
2017-07-28T08:05:59.740Z,18.35
2017-07-28T08:07:09.329Z,18.47
2017-07-28T08:08:18.869Z,18.55
2017-07-28T08:09:28.425Z,18.44
2017-07-28T08:10:37.637Z,18.42
2017-07-28T08:11:47.182Z,18.45
2017-07-28T08:12:56.085Z,18.41
2017-07-28T08:14:06.263Z,18.51
2017-07-28T08:15:15.824Z,18.55
2017-07-28T08:16:24.717Z,18.58
2017-07-28T08:17:34.265Z,18.72
2017-07-28T08:18:44.128Z,18.67
2017-07-28T08:19:53.338Z,18.76
2017-07-28T08:21:02.553Z,18.85
2017-07-28T08:22:12.888Z,18.82
2017-07-28T08:23:22.426Z,18.98
2017-07-28T08:24:31.959Z,19.04
2017-07-28T08:25:41.174Z,19.08
2017-07-28T08:26:50.060Z,19.14
2017-07-28T08:27:59.270Z,19.18
2017-07-28T08:29:09.127Z,19.18
2017-07-28T08:30:18.343Z,19.25
2017-07-28T08:31:27.883Z,19.23
2017-07-28T08:32:37.419Z,19.25
2017-07-28T08:33:46.735Z,19.31
2017-07-28T08:34:56.637Z,19.44
2017-07-28T08:36:06.278Z,19.41
2017-07-28T08:37:15.821Z,19.48
2017-07-28T08:38:25.096Z,19.47
2017-07-28T08:39:34.782Z,19.55
2017-07-28T08:40:44.017Z,19.44
2017-07-28T08:41:54.532Z,19.43
2017-07-28T08:43:04.393Z,19.46
2017-07-28T08:44:13.932Z,19.48
2017-07-28T08:45:23.997Z,19.39
2017-07-28T08:46:33.243Z,19.55
2017-07-28T08:47:42.791Z,19.48
2017-07-28T08:48:52.328Z,19.51
2017-07-28T08:50:02.232Z,19.5
2017-07-28T08:51:11.555Z,19.55
2017-07-28T08:52:21.202Z,19.63
2017-07-28T08:53:30.807Z,19.66
2017-07-28T08:54:40.103Z,19.58
2017-07-28T08:55:49.390Z,19.78
2017-07-28T08:56:59.491Z,19.78
2017-07-28T08:58:09.259Z,19.66
2017-07-28T08:59:18.827Z,19.63
2017-07-28T09:00:27.793Z,19.69
2017-07-28T09:01:37.363Z,19.69
2017-07-28T09:02:46.887Z,19.73
2017-07-28T09:03:55.877Z,19.73
2017-07-28T09:05:05.301Z,19.59
2017-07-28T09:06:14.694Z,19.69
2017-07-28T09:07:24.348Z,19.61
2017-07-28T09:08:34.338Z,19.56
2017-07-28T09:09:43.583Z,19.73
2017-07-28T09:10:53.138Z,19.59
2017-07-28T09:12:02.464Z,19.62
2017-07-28T09:13:11.735Z,19.68
2017-07-28T09:14:21.614Z,19.68
2017-07-28T09:15:31.231Z,19.74
2017-07-28T09:16:41.119Z,19.8
2017-07-28T09:17:50.027Z,19.83
2017-07-28T09:18:59.629Z,19.86
2017-07-28T09:20:09.183Z,19.94
2017-07-28T09:21:18.436Z,20.01
2017-07-28T09:22:27.972Z,20.13
2017-07-28T09:23:37.530Z,20.17
2017-07-28T09:24:47.481Z,20.31
2017-07-28T09:25:56.883Z,20.35
2017-07-28T09:27:06.883Z,20.48
2017-07-28T09:28:17.116Z,20.43
2017-07-28T09:29:27.052Z,20.5
2017-07-28T09:30:36.290Z,20.48
2017-07-28T09:31:45.535Z,20.52
2017-07-28T09:32:55.762Z,20.51
2017-07-28T09:34:05.623Z,20.66
2017-07-28T09:35:14.856Z,20.58
2017-07-28T09:36:24.774Z,20.72
2017-07-28T09:37:34.485Z,20.66
2017-07-28T09:38:44.046Z,20.62
2017-07-28T09:39:53.622Z,20.64
2017-07-28T09:41:03.190Z,20.61
2017-07-28T09:42:12.440Z,20.51
2017-07-28T09:43:22.592Z,20.5
2017-07-28T09:44:32.202Z,20.51
2017-07-28T09:45:42.419Z,20.36
2017-07-28T09:46:51.708Z,20.38
2017-07-28T09:48:01.648Z,20.35
2017-07-28T09:49:10.959Z,20.29
2017-07-28T09:50:20.196Z,20.31
2017-07-28T09:51:30.124Z,20.31
2017-07-28T09:52:39.656Z,20.21
2017-07-28T09:53:49.881Z,20.11
2017-07-28T09:54:59.199Z,20.01
2017-07-28T09:56:08.417Z,19.68
2017-07-28T09:57:17.629Z,19.37
2017-07-28T09:58:27.158Z,19.19
2017-07-28T09:59:36.726Z,19.02
2017-07-28T10:00:46.733Z,18.88
2017-07-28T10:01:55.946Z,18.84
2017-07-28T10:03:05.481Z,18.87
2017-07-28T10:04:14.397Z,18.78
2017-07-28T10:05:24.336Z,18.8
2017-07-28T10:06:33.932Z,18.76
2017-07-28T10:07:43.801Z,18.85
2017-07-28T10:08:53.011Z,18.82
2017-07-28T10:10:02.300Z,18.87
2017-07-28T10:11:11.863Z,18.92
2017-07-28T10:12:21.124Z,18.92
2017-07-28T10:13:30.988Z,18.98
2017-07-28T10:14:40.527Z,19.07
2017-07-28T10:15:50.064Z,19.07
2017-07-28T10:16:59.288Z,19.1
2017-07-28T10:18:08.348Z,19.16
2017-07-28T10:19:18.213Z,19.19
2017-07-28T10:20:27.424Z,19.29
2017-07-28T10:21:36.631Z,19.28
2017-07-28T10:22:45.865Z,19.37
2017-07-28T10:23:55.549Z,19.5
2017-07-28T10:25:05.086Z,19.58
2017-07-28T10:26:14.623Z,19.68
2017-07-28T10:27:24.801Z,19.83
2017-07-28T10:28:34.018Z,19.88
2017-07-28T10:29:44.033Z,20.05
2017-07-28T10:30:53.894Z,20.03
2017-07-28T10:32:03.750Z,19.99
2017-07-28T10:33:13.620Z,20.05
2017-07-28T10:34:23.163Z,20.05
2017-07-28T10:35:32.694Z,20.11
2017-07-28T10:36:41.580Z,19.96
2017-07-28T10:37:50.792Z,20.1
2017-07-28T10:39:00.325Z,20.03
2017-07-28T10:40:09.855Z,20.11
2017-07-28T10:41:20.185Z,20.02
2017-07-28T10:42:30.040Z,20.01
2017-07-28T10:43:39.253Z,19.96
2017-07-28T10:44:49.107Z,19.96
2017-07-28T10:45:58.654Z,20.01
2017-07-28T10:47:07.843Z,20.02
2017-07-28T10:48:17.381Z,20.11
2017-07-28T10:49:27.239Z,20.17
2017-07-28T10:50:36.777Z,20.21
2017-07-28T10:51:45.989Z,20.33
2017-07-28T10:52:54.874Z,20.29
2017-07-28T10:54:04.729Z,20.29
2017-07-28T10:55:14.264Z,20.33
2017-07-28T10:56:23.475Z,20.41
2017-07-28T10:57:33.338Z,20.47
2017-07-28T10:58:42.931Z,20.57
2017-07-28T10:59:52.464Z,20.72
2017-07-28T11:01:01.699Z,20.62
2017-07-28T11:02:10.915Z,20.7
2017-07-28T11:03:21.108Z,20.77
2017-07-28T11:04:30.486Z,20.89
2017-07-28T11:05:39.369Z,21.01
2017-07-28T11:06:48.899Z,21.09
2017-07-28T11:07:57.801Z,21.13
2017-07-28T11:09:07.353Z,21.22
2017-07-28T11:10:16.699Z,21.27
2017-07-28T11:11:26.258Z,21.28
2017-07-28T11:12:35.493Z,21.31
2017-07-28T11:13:45.027Z,21.28
2017-07-28T11:14:53.916Z,21.42
2017-07-28T11:16:03.870Z,21.46
2017-07-28T11:17:14.059Z,21.62
2017-07-28T11:18:22.960Z,21.74
2017-07-28T11:19:32.195Z,21.75
2017-07-28T11:20:41.117Z,21.74
2017-07-28T11:21:50.329Z,21.74
2017-07-28T11:22:59.575Z,21.82
2017-07-28T11:24:08.799Z,21.84
2017-07-28T11:25:18.023Z,21.84
2017-07-28T11:26:27.238Z,21.8
2017-07-28T11:27:36.944Z,21.68
2017-07-28T11:28:45.831Z,21.72
2017-07-28T11:29:55.405Z,21.82
2017-07-28T11:31:05.294Z,21.71
2017-07-28T11:32:15.152Z,21.77
2017-07-28T11:33:24.798Z,21.79
2017-07-28T11:34:34.016Z,21.68
2017-07-28T11:35:43.235Z,21.71
2017-07-28T11:36:53.092Z,21.75
2017-07-28T11:38:02.977Z,21.75
2017-07-28T11:39:13.250Z,21.74
2017-07-28T11:40:23.113Z,21.67
2017-07-28T11:41:32.015Z,21.64
2017-07-28T11:42:42.294Z,21.58
2017-07-28T11:43:52.009Z,21.61
2017-07-28T11:45:01.347Z,21.4
2017-07-28T11:46:10.638Z,21.32
2017-07-28T11:47:20.380Z,21.25
2017-07-28T11:48:30.365Z,21.34
2017-07-28T11:49:39.671Z,21.19
2017-07-28T11:50:49.532Z,21.04
2017-07-28T11:51:58.952Z,20.94
2017-07-28T11:53:08.365Z,20.82
2017-07-28T11:54:18.011Z,20.74
2017-07-28T11:55:27.256Z,20.82
2017-07-28T11:56:36.325Z,20.73
2017-07-28T11:57:45.603Z,20.69
2017-07-28T11:58:54.605Z,20.66
2017-07-28T12:00:03.983Z,20.62
2017-07-28T12:01:14.093Z,20.7
2017-07-28T12:02:23.542Z,20.61
2017-07-28T12:03:33.226Z,20.47
2017-07-28T12:04:43.257Z,20.52
2017-07-28T12:05:53.252Z,20.51
2017-07-28T12:07:02.508Z,20.42
2017-07-28T12:08:11.749Z,20.36
2017-07-28T12:09:21.621Z,20.32
2017-07-28T12:10:30.516Z,20.36
2017-07-28T12:11:40.383Z,20.33
2017-07-28T12:12:49.271Z,20.31
2017-07-28T12:13:58.218Z,20.32
2017-07-28T12:15:07.493Z,20.24
2017-07-28T12:16:17.076Z,20.11
2017-07-28T12:17:26.296Z,20.06
2017-07-28T12:18:35.186Z,19.99
2017-07-28T12:19:44.994Z,19.84
2017-07-28T12:20:54.579Z,18.76
2017-07-28T12:22:04.444Z,17.89
2017-07-28T12:23:14.648Z,17.46
2017-07-28T12:24:24.231Z,17.04
2017-07-28T12:25:33.621Z,16.98
2017-07-28T12:26:43.172Z,17.14
2017-07-28T12:27:52.741Z,16.76
2017-07-28T12:29:02.352Z,16.64
2017-07-28T12:30:12.860Z,16.63
2017-07-28T12:31:22.547Z,16.66
2017-07-28T12:32:31.786Z,16.78
2017-07-28T12:33:41.346Z,16.67
2017-07-28T12:34:50.578Z,16.71
2017-07-28T12:36:00.112Z,16.71
2017-07-28T12:37:10.169Z,16.68
2017-07-28T12:38:19.382Z,16.68
2017-07-28T12:39:28.597Z,16.75
2017-07-28T12:40:37.836Z,16.68
2017-07-28T12:41:47.694Z,16.76
2017-07-28T12:42:57.531Z,16.57
2017-07-28T12:44:07.061Z,16.66
2017-07-28T12:45:16.600Z,16.6
2017-07-28T12:46:26.455Z,16.52
2017-07-28T12:47:35.671Z,16.66
2017-07-28T12:48:44.906Z,16.66
2017-07-28T12:49:54.794Z,16.71
2017-07-28T12:51:04.340Z,16.5
2017-07-28T12:52:14.520Z,16.78
2017-07-28T12:53:24.384Z,16.63
2017-07-28T12:54:34.339Z,16.58
2017-07-28T12:55:43.233Z,16.46
2017-07-28T12:56:52.769Z,16.48
2017-07-28T12:58:02.313Z,16.45
2017-07-28T12:59:11.550Z,16.45
2017-07-28T13:00:21.559Z,16.71
2017-07-28T13:01:30.816Z,16.64
2017-07-28T13:02:40.392Z,16.49
2017-07-28T13:03:49.924Z,16.6
2017-07-28T13:04:58.808Z,16.52
2017-07-28T13:06:09.091Z,16.7
2017-07-28T13:07:18.631Z,16.76
2017-07-28T13:08:28.550Z,16.88
2017-07-28T13:09:38.109Z,16.89
2017-07-28T13:10:47.983Z,17.03
2017-07-28T13:11:58.321Z,17.08
2017-07-28T13:13:07.529Z,17.07
2017-07-28T13:14:16.416Z,17.22
2017-07-28T13:15:25.978Z,17.14
2017-07-28T13:16:36.162Z,17.12
2017-07-28T13:17:45.195Z,17.07
2017-07-28T13:18:55.078Z,17.52
2017-07-28T13:20:04.289Z,17.12
2017-07-28T13:21:13.822Z,17.06
2017-07-28T13:22:23.030Z,17.08
2017-07-28T13:23:32.293Z,16.97
2017-07-28T13:24:42.477Z,16.83
2017-07-28T13:25:52.030Z,16.79
2017-07-28T13:27:01.586Z,16.7
2017-07-28T13:28:10.801Z,16.53
2017-07-28T13:29:20.982Z,16.73
2017-07-28T13:30:30.847Z,16.43
2017-07-28T13:31:40.753Z,16.25
2017-07-28T13:32:50.283Z,16.02
2017-07-28T13:33:59.820Z,16
2017-07-28T13:35:09.777Z,15.9
2017-07-28T13:36:18.985Z,15.89
2017-07-28T13:37:28.529Z,15.89
2017-07-28T13:38:38.074Z,15.97
2017-07-28T13:39:47.620Z,15.84
2017-07-28T13:40:56.650Z,15.87
2017-07-28T13:42:06.514Z,15.89
2017-07-28T13:43:15.736Z,15.89
2017-07-28T13:44:24.618Z,15.93
2017-07-28T13:45:33.830Z,15.97
2017-07-28T13:46:43.734Z,16.21
2017-07-28T13:47:53.302Z,16.12
2017-07-28T13:49:02.511Z,16.08
2017-07-28T13:50:11.789Z,16.28
2017-07-28T13:51:21.014Z,16.45
2017-07-28T13:52:30.454Z,16.5
2017-07-28T13:53:40.346Z,16.56
2017-07-28T13:54:49.878Z,16.78
2017-07-28T13:55:59.102Z,16.83
2017-07-28T13:57:08.323Z,17.11
2017-07-28T13:58:17.916Z,17.38
2017-07-28T13:59:28.142Z,17.49
2017-07-28T14:00:37.130Z,17.52
2017-07-28T14:01:47.041Z,17.71
2017-07-28T14:02:56.635Z,17.72
2017-07-28T14:04:06.328Z,17.74
2017-07-28T14:05:15.584Z,18
2017-07-28T14:06:25.162Z,18.21
2017-07-28T14:07:34.716Z,18.18
2017-07-28T14:08:43.626Z,18.29
2017-07-28T14:09:53.025Z,18.36
2017-07-28T14:11:03.294Z,18.33
2017-07-28T14:12:12.208Z,18.3
2017-07-28T14:13:22.070Z,18.27
2017-07-28T14:14:31.933Z,18.27
2017-07-28T14:15:41.364Z,18.3
2017-07-28T14:16:50.576Z,18.37
2017-07-28T14:18:00.114Z,18.44
2017-07-28T14:19:09.326Z,18.29
2017-07-28T14:20:18.218Z,18.3
2017-07-28T14:21:27.440Z,18.3
2017-07-28T14:22:37.008Z,18.41
2017-07-28T14:23:46.270Z,18.76
2017-07-28T14:24:55.562Z,18.81
2017-07-28T14:26:04.787Z,18.84
2017-07-28T14:27:14.472Z,18.95
2017-07-28T14:28:24.007Z,18.92
2017-07-28T14:29:32.903Z,19.1
2017-07-28T14:30:41.809Z,19.28
2017-07-28T14:31:51.358Z,19.47
2017-07-28T14:33:01.160Z,19.78
2017-07-28T14:34:10.702Z,19.68
2017-07-28T14:35:20.983Z,19.56
2017-07-28T14:36:29.920Z,19.39
2017-07-28T14:37:39.493Z,19.29
2017-07-28T14:38:48.889Z,19.13
2017-07-28T14:39:58.429Z,18.95
2017-07-28T14:41:07.968Z,18.94
2017-07-28T14:42:17.503Z,19.1
2017-07-28T14:43:27.037Z,19.22
2017-07-28T14:44:36.260Z,19.25
2017-07-28T14:45:46.141Z,19.21
2017-07-28T14:46:55.998Z,19.19
2017-07-28T14:48:05.542Z,19.06
2017-07-28T14:49:15.097Z,18.91
2017-07-28T14:50:25.383Z,18.98
2017-07-28T14:51:35.246Z,19.08
2017-07-28T14:52:44.785Z,19.13
2017-07-28T14:53:54.651Z,19.13
2017-07-28T14:55:03.882Z,19.13
2017-07-28T14:56:13.468Z,19.21
2017-07-28T14:57:23.333Z,19.29
2017-07-28T14:58:32.896Z,19.51